createdAt,value
2023-07-18T00:01:44.321Z,98642.00
2023-07-18T00:04:20.243Z,98646.00
2023-07-18T00:06:56.142Z,98650.00
2023-07-18T00:09:32.799Z,98659.00
2023-07-18T00:12:09.697Z,98655.00
2023-07-18T00:14:45.640Z,98660.00
2023-07-18T00:17:21.617Z,98657.00
2023-07-18T00:19:57.505Z,98659.00
2023-07-18T00:22:33.404Z,98654.00
2023-07-18T00:25:14.471Z,98659.00
2023-07-18T00:27:52.251Z,98654.00
2023-07-18T00:30:28.922Z,98653.00
2023-07-18T00:33:04.935Z,98659.00
2023-07-18T00:35:41.285Z,98661.00
2023-07-18T00:38:17.613Z,98662.00
2023-07-18T00:40:53.702Z,98659.00
2023-07-18T00:43:35.638Z,98660.00
2023-07-18T00:46:17.221Z,98656.00
2023-07-18T00:48:53.337Z,98658.00
2023-07-18T00:51:30.204Z,98652.00
2023-07-18T00:54:07.811Z,98650.00
2023-07-18T00:56:45.918Z,98654.00
2023-07-18T00:59:25.306Z,98641.00
2023-07-18T01:02:04.020Z,98648.00
2023-07-18T01:04:41.090Z,98646.00
2023-07-18T01:07:17.109Z,98649.00
2023-07-18T01:09:54.642Z,98640.00
2023-07-18T01:12:30.561Z,98640.00
2023-07-18T01:15:09.373Z,98639.00
2023-07-18T01:17:46.583Z,98644.00
2023-07-18T01:20:28.098Z,98636.00
2023-07-18T01:23:05.350Z,98631.00
2023-07-18T01:25:42.350Z,98637.00
2023-07-18T01:28:18.251Z,98637.00
2023-07-18T01:30:54.243Z,98630.00
2023-07-18T01:33:30.705Z,98635.00
2023-07-18T01:36:08.448Z,98624.00
2023-07-18T01:38:45.658Z,98624.00
2023-07-18T01:41:21.688Z,98629.00
2023-07-18T01:43:58.121Z,98628.00
2023-07-18T01:46:34.034Z,98627.00
2023-07-18T01:49:10.072Z,98626.00
2023-07-18T01:51:46.019Z,98624.00
2023-07-18T01:54:22.028Z,98617.00
2023-07-18T01:56:57.960Z,98617.00
2023-07-18T01:59:33.906Z,98623.00
2023-07-18T02:02:09.998Z,98629.00
2023-07-18T02:04:45.967Z,98629.00
2023-07-18T02:07:21.916Z,98633.00
2023-07-18T02:09:58.936Z,98623.00
2023-07-18T02:12:34.888Z,98624.00
2023-07-18T02:15:14.181Z,98604.00
2023-07-18T02:17:52.464Z,98618.00
2023-07-18T02:20:28.707Z,98616.00
2023-07-18T02:23:04.703Z,98614.00
2023-07-18T02:25:40.644Z,98611.00
2023-07-18T02:28:16.552Z,98613.00
2023-07-18T02:30:53.697Z,98616.00
2023-07-18T02:33:29.886Z,98609.00
2023-07-18T02:36:07.541Z,98614.00
2023-07-18T02:38:43.434Z,98612.00
2023-07-18T02:41:19.574Z,98618.00
2023-07-18T02:43:55.777Z,98617.00
2023-07-18T02:46:32.000Z,98613.00
2023-07-18T02:49:10.768Z,98612.00
2023-07-18T02:51:47.248Z,98616.00
2023-07-18T02:54:23.468Z,98611.00
2023-07-18T02:57:00.131Z,98624.00
2023-07-18T02:59:36.127Z,98621.00
2023-07-18T03:02:12.877Z,98618.00
2023-07-18T03:04:49.420Z,98614.00
2023-07-18T03:07:25.477Z,98621.00
2023-07-18T03:10:01.356Z,98618.00
2023-07-18T03:12:37.300Z,98619.00
2023-07-18T03:15:13.287Z,98618.00
2023-07-18T03:17:49.390Z,98613.00
2023-07-18T03:20:25.579Z,98618.00
2023-07-18T03:23:03.109Z,98623.00
2023-07-18T03:25:39.092Z,98621.00
2023-07-18T03:28:15.642Z,98617.00
2023-07-18T03:30:51.589Z,98614.00
2023-07-18T03:33:27.622Z,98602.00
2023-07-18T03:36:06.108Z,98607.00
2023-07-18T03:38:42.763Z,98610.00
2023-07-18T03:41:18.880Z,98610.00
2023-07-18T03:43:56.363Z,98605.00
2023-07-18T03:46:32.304Z,98599.00
2023-07-18T03:49:08.667Z,98602.00
2023-07-18T03:51:44.614Z,98594.00
2023-07-18T03:54:20.537Z,98597.00
2023-07-18T03:56:56.785Z,98607.00
2023-07-18T03:59:32.765Z,98605.00
2023-07-18T04:02:08.886Z,98604.00
2023-07-18T04:04:44.947Z,98600.00
2023-07-18T04:07:21.622Z,98605.00
2023-07-18T04:09:57.520Z,98596.00
2023-07-18T04:12:33.447Z,98605.00
2023-07-18T04:15:11.437Z,98606.00
2023-07-18T04:17:47.421Z,98601.00
2023-07-18T04:20:23.384Z,98606.00
2023-07-18T04:22:59.368Z,98604.00
2023-07-18T04:25:36.183Z,98608.00
2023-07-18T04:28:12.175Z,98601.00
2023-07-18T04:30:48.165Z,98610.00
2023-07-18T04:33:24.126Z,98607.00
2023-07-18T04:36:00.011Z,98605.00
2023-07-18T04:38:36.797Z,98598.00
2023-07-18T04:41:12.705Z,98594.00
2023-07-18T04:43:48.695Z,98599.00
2023-07-18T04:46:24.691Z,98591.00
2023-07-18T04:49:00.630Z,98598.00
2023-07-18T04:51:36.532Z,98591.00
2023-07-18T04:54:12.445Z,98589.00
2023-07-18T04:56:48.412Z,98603.00
2023-07-18T04:59:24.943Z,98602.00
2023-07-18T05:02:01.039Z,98590.00
2023-07-18T05:04:37.064Z,98589.00
2023-07-18T05:07:14.586Z,98596.00
2023-07-18T05:09:50.530Z,98584.00
2023-07-18T05:12:26.458Z,98587.00
2023-07-18T05:15:03.684Z,98586.00
2023-07-18T05:17:39.605Z,98587.00
2023-07-18T05:20:16.434Z,98582.00
2023-07-18T05:22:52.382Z,98585.00
2023-07-18T05:25:29.162Z,98577.00
2023-07-18T05:28:05.087Z,98577.00
2023-07-18T05:30:41.217Z,98577.00
2023-07-18T05:33:17.160Z,98575.00
2023-07-18T05:35:53.069Z,98573.00
2023-07-18T05:38:29.167Z,98577.00
2023-07-18T05:41:05.176Z,98579.00
2023-07-18T05:43:41.127Z,98569.00
2023-07-18T05:46:17.498Z,98576.00
2023-07-18T05:48:53.429Z,98575.00
2023-07-18T05:51:29.381Z,98564.00
2023-07-18T05:54:05.634Z,98572.00
2023-07-18T05:56:42.937Z,98572.00
2023-07-18T05:59:18.878Z,98564.00
2023-07-18T06:01:55.028Z,98562.00
2023-07-18T06:04:31.033Z,98557.00
2023-07-18T06:07:07.447Z,98555.00
2023-07-18T06:09:43.783Z,98553.00
2023-07-18T06:12:19.982Z,98546.00
2023-07-18T06:14:56.255Z,98546.00
2023-07-18T06:17:36.844Z,98541.00
2023-07-18T06:20:13.579Z,98536.00
2023-07-18T06:22:49.533Z,98547.00
2023-07-18T06:25:26.101Z,98536.00
2023-07-18T06:28:02.319Z,98540.00
2023-07-18T06:30:38.379Z,98536.00
2023-07-18T06:33:14.878Z,98536.00
2023-07-18T06:35:58.111Z,98530.00
2023-07-18T06:38:34.127Z,98523.00
2023-07-18T06:41:10.475Z,98526.00
2023-07-18T06:43:46.512Z,98530.00
2023-07-18T06:46:22.913Z,98516.00
2023-07-18T06:48:58.891Z,98509.00
2023-07-18T06:51:34.803Z,98508.00
2023-07-18T06:54:10.949Z,98508.00
2023-07-18T06:56:46.889Z,98507.00
2023-07-18T06:59:25.314Z,98515.00
2023-07-18T07:02:01.245Z,98517.00
2023-07-18T07:04:40.360Z,98515.00
2023-07-18T07:07:16.289Z,98512.00
2023-07-18T07:09:52.232Z,98511.00
2023-07-18T07:12:36.316Z,98507.00
2023-07-18T07:15:13.514Z,98505.00
2023-07-18T07:17:49.446Z,98502.00
2023-07-18T07:20:26.770Z,98493.00
2023-07-18T07:23:03.255Z,98492.00
2023-07-18T07:25:39.365Z,98482.00
2023-07-18T07:28:15.347Z,98491.00
2023-07-18T07:30:52.690Z,98487.00
2023-07-18T07:33:28.594Z,98485.00
2023-07-18T07:36:04.938Z,98485.00
2023-07-18T07:38:40.873Z,98467.00
2023-07-18T07:41:17.486Z,98471.00
2023-07-18T07:43:53.656Z,98474.00
2023-07-18T07:46:33.520Z,98471.00
2023-07-18T07:49:10.774Z,98463.00
2023-07-18T07:51:46.993Z,98464.00
2023-07-18T07:54:22.876Z,98456.00
2023-07-18T07:56:58.791Z,98456.00
2023-07-18T07:59:34.740Z,98446.00
2023-07-18T08:02:10.764Z,98442.00
2023-07-18T08:04:48.105Z,98437.00
2023-07-18T08:07:24.096Z,98443.00
2023-07-18T08:10:00.040Z,98434.00
2023-07-18T08:12:35.960Z,98431.00
2023-07-18T08:15:11.916Z,98431.00
2023-07-18T08:17:47.898Z,98435.00
2023-07-18T08:20:24.356Z,98434.00
2023-07-18T08:23:00.286Z,98435.00
2023-07-18T08:25:36.438Z,98436.00
2023-07-18T08:28:12.431Z,98419.00
2023-07-18T08:30:48.355Z,98427.00
2023-07-18T08:33:25.358Z,98413.00
2023-07-18T08:36:01.234Z,98416.00
2023-07-18T08:38:37.178Z,98411.00
2023-07-18T08:41:14.770Z,98415.00
2023-07-18T08:43:51.234Z,98410.00
2023-07-18T08:46:28.073Z,98402.00
2023-07-18T08:49:05.610Z,98394.00
2023-07-18T08:51:43.160Z,98387.00
2023-07-18T08:54:19.213Z,98395.00
2023-07-18T08:56:57.691Z,98399.00
2023-07-18T08:59:34.307Z,98401.00
2023-07-18T09:02:10.421Z,98387.00
2023-07-18T09:04:48.143Z,98384.00
2023-07-18T09:07:28.302Z,98379.00
2023-07-18T09:10:05.248Z,98376.00
2023-07-18T09:12:42.197Z,98381.00
2023-07-18T09:15:22.115Z,98372.00
2023-07-18T09:18:03.838Z,98380.00
2023-07-18T09:20:40.255Z,98378.00
2023-07-18T09:23:16.339Z,98372.00
2023-07-18T09:25:52.734Z,98371.00
2023-07-18T09:28:32.864Z,98358.00
2023-07-18T09:31:24.368Z,98359.00
2023-07-18T09:34:00.630Z,98362.00
2023-07-18T09:36:37.032Z,98368.00
2023-07-18T09:39:13.241Z,98357.00
2023-07-18T09:41:49.852Z,98353.00
2023-07-18T09:44:33.049Z,98356.00
2023-07-18T09:47:10.103Z,98353.00
2023-07-18T09:49:47.309Z,98357.00
2023-07-18T09:52:27.676Z,98350.00
2023-07-18T09:55:08.040Z,98369.00
2023-07-18T09:57:44.539Z,98375.00
2023-07-18T10:00:23.708Z,98379.00
2023-07-18T10:03:00.525Z,98408.00
2023-07-18T10:05:36.864Z,98433.00
2023-07-18T10:08:13.924Z,98438.00
2023-07-18T10:11:08.944Z,98444.00
2023-07-18T10:14:14.802Z,98434.00
2023-07-18T10:17:06.785Z,98417.00
2023-07-18T10:19:51.478Z,98414.00
2023-07-18T10:22:32.650Z,98393.00
2023-07-18T10:25:09.849Z,98347.00
2023-07-18T10:27:48.282Z,98337.00
2023-07-18T10:30:24.487Z,98341.00
2023-07-18T10:33:00.467Z,98280.00
2023-07-18T10:35:44.771Z,98192.00
2023-07-18T10:38:22.596Z,98080.00
2023-07-18T10:40:58.759Z,98004.00
2023-07-18T10:43:34.717Z,98061.00
2023-07-18T10:46:10.663Z,98127.00
2023-07-18T10:48:53.213Z,98222.00
2023-07-18T10:51:34.835Z,98233.00
2023-07-18T10:54:12.707Z,98217.00
2023-07-18T10:56:49.929Z,98242.00
2023-07-18T10:59:25.849Z,98287.00
2023-07-18T11:02:03.401Z,98312.00
2023-07-18T11:04:39.930Z,98328.00
2023-07-18T11:07:16.180Z,98345.00
2023-07-18T11:09:55.615Z,98384.00
2023-07-18T11:12:31.575Z,98398.00
2023-07-18T11:15:09.643Z,98389.00
2023-07-18T11:17:46.063Z,98389.00
2023-07-18T11:20:23.482Z,98380.00
2023-07-18T11:22:59.453Z,98376.00
2023-07-18T11:25:35.428Z,98378.00
2023-07-18T11:28:12.864Z,98381.00
2023-07-18T11:30:48.965Z,98390.00
2023-07-18T11:33:37.521Z,98381.00
2023-07-18T11:36:13.487Z,98351.00
2023-07-18T11:38:50.973Z,98359.00
2023-07-18T11:41:35.664Z,98376.00
2023-07-18T11:44:11.966Z,98372.00
2023-07-18T11:46:47.942Z,98328.00
2023-07-18T11:49:35.935Z,98333.00
2023-07-18T11:52:12.253Z,98285.00
2023-07-18T11:54:48.329Z,98279.00
2023-07-18T11:57:24.818Z,98290.00
2023-07-18T12:00:02.234Z,98286.00
2023-07-18T12:02:38.692Z,98252.00
2023-07-18T12:05:15.660Z,98232.00
2023-07-18T12:07:51.631Z,98218.00
2023-07-18T12:10:28.757Z,98182.00
2023-07-18T12:13:04.673Z,98170.00
2023-07-18T12:15:40.584Z,98151.00
2023-07-18T12:18:16.531Z,98142.00
2023-07-18T12:20:53.773Z,98134.00
2023-07-18T12:23:29.757Z,98130.00
2023-07-18T12:26:05.639Z,98130.00
2023-07-18T12:28:41.557Z,98119.00
2023-07-18T12:31:17.645Z,98119.00
2023-07-18T12:33:53.647Z,98113.00
2023-07-18T12:36:29.575Z,98110.00
2023-07-18T12:39:05.489Z,98121.00
2023-07-18T12:41:41.523Z,98128.00
2023-07-18T12:44:24.328Z,98133.00
2023-07-18T12:47:02.838Z,98122.00
2023-07-18T12:52:18.126Z,98143.00
2023-07-18T12:54:54.091Z,98144.00
2023-07-18T12:57:32.257Z,98133.00
2023-07-18T13:00:10.862Z,98142.00
2023-07-18T13:02:47.840Z,98143.00
2023-07-18T13:05:24.527Z,98134.00
2023-07-18T13:08:00.478Z,98126.00
2023-07-18T13:10:38.233Z,98118.00
2023-07-18T13:13:14.246Z,98124.00
2023-07-18T13:15:50.193Z,98123.00
2023-07-18T13:18:26.364Z,98115.00
2023-07-18T13:21:02.797Z,98110.00
2023-07-18T13:23:38.747Z,98097.00
2023-07-18T13:26:18.679Z,98084.00
2023-07-18T13:28:54.909Z,98076.00
2023-07-18T13:31:31.242Z,98077.00
2023-07-18T13:34:07.965Z,98073.00
2023-07-18T13:36:43.975Z,98077.00
2023-07-18T13:39:19.898Z,98079.00
2023-07-18T13:41:55.835Z,98075.00
2023-07-18T13:44:31.767Z,98071.00
2023-07-18T13:47:07.792Z,98078.00
2023-07-18T13:52:23.509Z,98076.00
2023-07-18T13:54:59.414Z,98068.00
2023-07-18T13:57:35.639Z,98071.00
2023-07-18T14:00:12.456Z,98076.00
2023-07-18T14:02:52.627Z,98085.00
2023-07-18T14:05:29.837Z,98093.00
2023-07-18T14:08:06.042Z,98091.00
2023-07-18T14:10:42.371Z,98094.00
2023-07-18T14:13:19.442Z,98090.00
2023-07-18T14:15:55.784Z,98086.00
2023-07-18T14:18:31.861Z,98082.00
2023-07-18T14:21:08.204Z,98079.00
2023-07-18T14:23:44.135Z,98075.00
2023-07-18T14:26:21.265Z,98081.00
2023-07-18T14:28:59.563Z,98078.00
2023-07-18T14:31:35.736Z,98074.00
2023-07-18T14:34:11.643Z,98079.00
2023-07-18T14:36:47.692Z,98068.00
2023-07-18T14:39:23.640Z,98059.00
2023-07-18T14:41:59.862Z,98061.00
2023-07-18T14:44:36.894Z,98062.00
2023-07-18T14:47:12.847Z,98062.00
2023-07-18T14:49:48.750Z,98042.00
2023-07-18T14:52:24.903Z,98025.00
2023-07-18T14:55:01.175Z,98014.00
2023-07-18T14:57:37.130Z,98003.00
2023-07-18T15:00:13.738Z,97993.00
2023-07-18T15:02:49.773Z,97983.00
2023-07-18T15:05:26.681Z,97992.00
2023-07-18T15:08:02.589Z,98000.00
2023-07-18T15:10:38.769Z,97994.00
2023-07-18T15:13:14.696Z,97993.00
2023-07-18T15:15:50.625Z,97993.00
2023-07-18T15:18:26.590Z,97995.00
2023-07-18T15:21:04.389Z,97992.00
2023-07-18T15:23:40.382Z,97995.00
2023-07-18T15:26:16.622Z,97996.00
2023-07-18T15:28:52.547Z,97996.00
2023-07-18T15:31:28.466Z,97987.00
2023-07-18T15:34:04.640Z,97992.00
2023-07-18T15:36:40.560Z,97986.00
2023-07-18T15:39:16.546Z,97969.00
2023-07-18T15:41:52.470Z,97959.00
2023-07-18T15:44:28.571Z,97951.00
2023-07-18T15:47:04.811Z,97956.00
2023-07-18T15:49:40.737Z,97951.00
2023-07-18T15:52:16.864Z,97951.00
2023-07-18T15:54:53.465Z,97949.00
2023-07-18T15:57:29.725Z,97954.00
2023-07-18T16:00:09.760Z,97961.00
2023-07-18T16:02:45.806Z,97946.00
2023-07-18T16:05:21.763Z,97934.00
2023-07-18T16:07:57.662Z,97935.00
2023-07-18T16:10:33.638Z,97931.00
2023-07-18T16:13:09.604Z,97932.00
2023-07-18T16:15:45.900Z,97924.00
2023-07-18T16:18:21.877Z,97932.00
2023-07-18T16:20:57.800Z,97931.00
2023-07-18T16:23:34.897Z,97939.00
2023-07-18T16:26:10.914Z,97936.00
2023-07-18T16:28:48.012Z,97924.00
2023-07-18T16:31:24.040Z,97930.00
2023-07-18T16:33:59.988Z,97926.00
2023-07-18T16:36:35.962Z,97930.00
2023-07-18T16:39:11.917Z,97939.00
2023-07-18T16:41:48.148Z,97943.00
2023-07-18T16:44:24.088Z,97932.00
2023-07-18T16:47:01.555Z,97932.00
2023-07-18T16:49:37.523Z,97949.00
2023-07-18T16:52:13.479Z,97952.00
2023-07-18T16:54:49.372Z,97943.00
2023-07-18T16:57:25.357Z,97930.00
2023-07-18T17:00:05.648Z,97934.00
2023-07-18T17:02:41.851Z,97940.00
2023-07-18T17:05:17.877Z,97933.00
2023-07-18T17:07:53.783Z,97925.00
2023-07-18T17:10:30.755Z,97915.00
2023-07-18T17:13:07.498Z,97913.00
2023-07-18T17:15:44.166Z,97926.00
2023-07-18T17:18:20.293Z,97940.00
2023-07-18T17:20:56.210Z,97927.00
2023-07-18T17:23:32.596Z,97914.00
2023-07-18T17:26:10.103Z,97894.00
2023-07-18T17:28:46.035Z,97848.00
2023-07-18T17:31:21.985Z,97859.00
2023-07-18T17:33:59.969Z,97903.00
2023-07-18T17:36:35.889Z,97953.00
2023-07-18T17:39:11.831Z,97986.00
2023-07-18T17:41:47.876Z,97965.00
2023-07-18T17:44:23.878Z,97953.00
2023-07-18T17:46:59.973Z,97984.00
2023-07-18T17:49:36.350Z,97956.00
2023-07-18T17:52:12.563Z,97884.00
2023-07-18T17:54:48.508Z,97752.00
2023-07-18T17:57:26.291Z,97770.00
2023-07-18T18:00:02.898Z,97793.00
2023-07-18T18:02:38.954Z,97756.00
2023-07-18T18:05:47.094Z,97782.00
2023-07-18T18:08:23.236Z,97794.00
2023-07-18T18:10:59.140Z,97791.00
2023-07-18T18:13:35.159Z,97795.00
2023-07-18T18:16:12.054Z,97793.00
2023-07-18T18:18:48.171Z,97794.00
2023-07-18T18:21:26.799Z,97800.00
2023-07-18T18:24:02.926Z,97820.00
2023-07-18T18:26:38.856Z,97824.00
2023-07-18T18:29:16.274Z,97830.00
2023-07-18T18:31:53.625Z,97856.00
2023-07-18T18:34:29.763Z,97862.00
2023-07-18T18:37:06.338Z,97870.00
2023-07-18T18:39:42.452Z,97866.00
2023-07-18T18:42:18.387Z,97889.00
2023-07-18T18:44:54.422Z,97913.00
2023-07-18T18:47:30.471Z,97943.00
2023-07-18T18:50:11.901Z,98005.00
2023-07-18T18:52:48.296Z,98015.00
2023-07-18T18:55:27.530Z,97963.00
2023-07-18T18:58:04.746Z,97900.00
2023-07-18T19:00:40.808Z,97876.00
2023-07-18T19:03:17.017Z,97873.00
2023-07-18T19:05:53.134Z,97921.00
2023-07-18T19:08:29.376Z,97979.00
2023-07-18T19:11:07.854Z,98033.00
2023-07-18T19:13:58.080Z,98066.00
2023-07-18T19:16:39.558Z,98115.00
2023-07-18T19:19:16.716Z,98122.00
2023-07-18T19:21:52.973Z,98121.00
2023-07-18T19:24:28.945Z,98013.00
2023-07-18T19:27:09.355Z,97874.00
2023-07-18T19:29:45.674Z,97720.00
2023-07-18T19:32:21.786Z,97724.00
2023-07-18T19:34:57.944Z,97761.00
2023-07-18T19:37:34.600Z,97808.00
2023-07-18T19:40:16.347Z,97834.00
2023-07-18T19:42:52.273Z,97839.00
2023-07-18T19:45:28.420Z,97849.00
2023-07-18T19:48:05.094Z,97871.00
2023-07-18T19:50:43.832Z,97879.00
2023-07-18T19:53:20.041Z,97872.00
2023-07-18T19:55:56.450Z,97880.00
2023-07-18T19:58:32.388Z,97891.00
2023-07-18T20:01:08.562Z,97885.00
2023-07-18T20:03:58.593Z,97878.00
2023-07-18T20:06:36.096Z,97886.00
2023-07-18T20:09:12.051Z,97899.00
2023-07-18T20:11:48.153Z,97921.00
2023-07-18T20:14:24.207Z,97922.00
2023-07-18T20:17:00.375Z,97928.00
2023-07-18T20:19:36.412Z,97958.00
2023-07-18T20:22:12.611Z,97980.00
2023-07-18T20:24:48.627Z,98004.00
2023-07-18T20:27:24.634Z,97985.00
2023-07-18T20:30:00.774Z,97947.00
2023-07-18T20:32:36.742Z,97941.00
2023-07-18T20:35:12.710Z,97927.00
2023-07-18T20:37:50.835Z,97909.00
2023-07-18T20:40:27.814Z,97903.00
2023-07-18T20:43:05.218Z,97914.00
2023-07-18T20:46:00.131Z,97934.00
2023-07-18T20:48:37.096Z,97955.00
2023-07-18T20:51:13.453Z,97946.00
2023-07-18T20:53:49.513Z,97923.00
2023-07-18T20:56:25.478Z,97914.00
2023-07-18T20:59:04.607Z,97909.00
2023-07-18T21:01:40.607Z,97896.00
2023-07-18T21:04:17.133Z,97896.00
2023-07-18T21:06:53.276Z,97888.00
2023-07-18T21:09:29.170Z,97877.00
2023-07-18T21:12:05.845Z,97890.00
2023-07-18T21:14:41.891Z,97888.00
2023-07-18T21:17:17.803Z,97894.00
2023-07-18T21:19:53.724Z,97887.00
2023-07-18T21:22:29.703Z,97879.00
2023-07-18T21:25:06.145Z,97886.00
2023-07-18T21:27:42.127Z,97880.00
2023-07-18T21:30:18.129Z,97880.00
2023-07-18T21:32:54.230Z,97882.00
2023-07-18T21:35:30.298Z,97879.00
2023-07-18T21:38:06.785Z,97872.00
2023-07-18T21:40:42.987Z,97877.00
2023-07-18T21:43:19.111Z,97875.00
2023-07-18T21:45:55.099Z,97871.00
2023-07-18T21:48:31.250Z,97870.00
2023-07-18T21:51:07.214Z,97880.00
2023-07-18T21:53:43.214Z,97873.00
2023-07-18T21:56:19.135Z,97861.00
2023-07-18T21:58:55.082Z,97861.00
2023-07-18T22:01:31.094Z,97863.00
2023-07-18T22:04:08.800Z,97866.00
2023-07-18T22:06:44.788Z,97865.00
2023-07-18T22:09:20.776Z,97867.00
2023-07-18T22:11:56.785Z,97868.00
2023-07-18T22:14:32.945Z,97867.00
2023-07-18T22:17:08.901Z,97871.00
2023-07-18T22:19:45.129Z,97863.00
2023-07-18T22:22:21.033Z,97859.00
2023-07-18T22:24:57.548Z,97854.00
2023-07-18T22:27:33.460Z,97860.00
2023-07-18T22:30:10.801Z,97858.00
2023-07-18T22:32:46.858Z,97865.00
2023-07-18T22:35:23.058Z,97866.00
2023-07-18T22:37:59.075Z,97864.00
2023-07-18T22:40:35.142Z,97868.00
2023-07-18T22:43:11.036Z,97870.00
2023-07-18T22:45:49.343Z,97870.00
2023-07-18T22:48:25.640Z,97868.00
2023-07-18T22:51:01.575Z,97871.00
2023-07-18T22:53:37.501Z,97865.00
2023-07-18T22:56:14.867Z,97863.00
2023-07-18T22:58:50.772Z,97869.00
2023-07-18T23:01:26.742Z,97869.00
2023-07-18T23:04:02.739Z,97871.00
2023-07-18T23:06:38.796Z,97871.00
2023-07-18T23:09:14.762Z,97873.00
2023-07-18T23:11:54.046Z,97873.00
2023-07-18T23:14:30.096Z,97868.00
2023-07-18T23:17:06.218Z,97875.00
2023-07-18T23:19:43.170Z,97872.00
2023-07-18T23:22:19.116Z,97875.00
2023-07-18T23:24:55.077Z,97873.00
2023-07-18T23:27:30.975Z,97869.00
2023-07-18T23:30:07.921Z,97860.00
2023-07-18T23:32:43.914Z,97849.00
2023-07-18T23:35:19.962Z,97849.00
2023-07-18T23:37:57.064Z,97856.00
2023-07-18T23:40:33.073Z,97851.00
2023-07-18T23:43:09.007Z,97846.00
2023-07-18T23:45:44.931Z,97854.00
2023-07-18T23:48:20.833Z,97841.00
2023-07-18T23:50:58.531Z,97844.00
2023-07-18T23:53:34.763Z,97845.00
2023-07-18T23:56:10.742Z,97843.00
2023-07-18T23:58:46.632Z,97841.00
